createdAt,value
2023-01-01T00:00:49.078Z,5.81
2023-01-01T00:03:53.514Z,5.57
2023-01-01T00:06:56.175Z,5.68
2023-01-01T00:10:17.803Z,5.68
2023-01-01T00:13:20.401Z,5.76
2023-01-01T00:16:23.295Z,5.60
2023-01-01T00:19:26.211Z,5.67
2023-01-01T00:22:53.221Z,5.58
2023-01-01T00:25:54.460Z,5.60
2023-01-01T00:28:57.267Z,5.65
2023-01-01T00:32:00.300Z,5.64
2023-01-01T00:35:03.552Z,5.81
2023-01-01T00:38:06.956Z,5.76
2023-01-01T00:41:10.699Z,5.83
2023-01-01T00:44:13.383Z,5.97
2023-01-01T00:47:16.345Z,5.94
2023-01-01T00:50:22.414Z,5.93
2023-01-01T00:53:25.599Z,5.93
2023-01-01T00:56:28.201Z,6.05
2023-01-01T00:59:32.100Z,6.03
2023-01-01T01:02:34.961Z,6.04
2023-01-01T01:05:39.106Z,6.08
2023-01-01T01:08:44.524Z,6.20
2023-01-01T01:11:47.882Z,5.96
2023-01-01T01:14:50.395Z,5.98
2023-01-01T01:17:53.250Z,6.00
2023-01-01T01:20:55.779Z,6.05
2023-01-01T01:24:01.504Z,6.04
2023-01-01T01:27:04.060Z,6.17
2023-01-01T01:30:07.815Z,6.11
2023-01-01T01:33:10.354Z,6.17
2023-01-01T01:36:14.582Z,6.16
2023-01-01T01:39:18.447Z,6.12
2023-01-01T01:42:22.281Z,6.20
2023-01-01T01:45:29.744Z,6.11
2023-01-01T01:48:44.029Z,6.21
2023-01-01T01:51:46.750Z,6.18
2023-01-01T01:54:50.620Z,6.21
2023-01-01T01:57:53.679Z,6.35
2023-01-01T02:00:57.024Z,6.33
2023-01-01T02:04:02.290Z,6.38
2023-01-01T02:07:04.959Z,6.31
2023-01-01T02:10:08.246Z,6.44
2023-01-01T02:13:11.469Z,6.38
2023-01-01T02:16:21.081Z,6.22
2023-01-01T02:20:08.227Z,6.15
2023-01-01T02:23:26.674Z,6.04
2023-01-01T02:26:57.151Z,6.09
2023-01-01T02:30:05.335Z,5.96
2023-01-01T02:33:16.404Z,5.64
2023-01-01T02:36:20.548Z,5.70
2023-01-01T02:39:27.741Z,5.65
2023-01-01T02:42:31.070Z,5.66
2023-01-01T02:45:33.971Z,5.77
2023-01-01T02:48:48.352Z,5.68
2023-01-01T02:52:15.392Z,5.71
2023-01-01T02:55:39.809Z,5.68
2023-01-01T02:59:30.188Z,5.74
2023-01-01T03:02:37.114Z,5.77
2023-01-01T03:06:13.591Z,5.73
2023-01-01T03:09:28.749Z,5.72
2023-01-01T03:12:43.940Z,5.57
2023-01-01T03:16:08.610Z,5.71
2023-01-01T03:19:20.500Z,5.75
2023-01-01T03:22:30.762Z,5.21
2023-01-01T03:25:41.555Z,5.16
2023-01-01T03:28:50.083Z,5.41
2023-01-01T03:31:58.353Z,5.55
2023-01-01T03:35:01.940Z,5.58
2023-01-01T03:38:27.375Z,5.55
2023-01-01T03:41:44.326Z,5.63
2023-01-01T03:44:52.840Z,5.50
2023-01-01T03:47:56.802Z,5.38
2023-01-01T03:51:17.987Z,5.28
2023-01-01T03:54:28.694Z,5.45
2023-01-01T03:57:50.050Z,5.49
2023-01-01T04:01:04.739Z,5.15
2023-01-01T04:04:08.137Z,4.91
2023-01-01T04:07:15.147Z,5.12
2023-01-01T04:10:18.700Z,5.12
2023-01-01T04:13:21.348Z,5.11
2023-01-01T04:16:24.681Z,4.89
2023-01-01T04:19:31.027Z,4.30
2023-01-01T04:22:34.031Z,4.03
2023-01-01T04:25:36.621Z,3.85
2023-01-01T04:28:39.604Z,4.40
2023-01-01T04:31:42.472Z,3.91
2023-01-01T04:34:45.351Z,3.59
2023-01-01T04:37:48.627Z,3.47
2023-01-01T04:40:58.881Z,3.34
2023-01-01T04:44:02.302Z,3.08
2023-01-01T04:47:05.344Z,3.41
2023-01-01T04:50:11.301Z,3.61
2023-01-01T04:53:14.231Z,3.77
2023-01-01T04:56:21.239Z,3.87
2023-01-01T04:59:24.314Z,3.94
2023-01-01T05:02:27.887Z,3.92
2023-01-01T05:05:31.035Z,4.02
2023-01-01T05:08:35.770Z,3.92
2023-01-01T05:11:38.687Z,4.02
2023-01-01T05:14:42.024Z,4.00
2023-01-01T05:17:44.962Z,3.95
2023-01-01T05:20:47.756Z,3.29
2023-01-01T05:23:59.460Z,3.58
2023-01-01T05:27:02.230Z,3.71
2023-01-01T05:30:06.135Z,3.78
2023-01-01T05:33:09.024Z,3.61
2023-01-01T05:36:17.674Z,3.90
2023-01-01T05:39:20.326Z,4.08
2023-01-01T05:42:23.217Z,4.49
2023-01-01T05:45:26.428Z,4.25
2023-01-01T05:48:30.629Z,4.20
2023-01-01T05:54:35.054Z,4.22
2023-01-01T05:57:37.624Z,4.26
2023-01-01T06:00:40.773Z,3.62
2023-01-01T06:03:44.371Z,3.28
2023-01-01T06:06:46.924Z,3.20
2023-01-01T06:09:51.069Z,3.46
2023-01-01T06:12:58.618Z,3.61
2023-01-01T06:16:03.122Z,3.36
2023-01-01T06:19:06.009Z,2.81
2023-01-01T06:22:09.325Z,2.54
2023-01-01T06:25:12.709Z,2.55
2023-01-01T06:28:15.585Z,2.64
2023-01-01T06:31:21.989Z,2.43
2023-01-01T06:34:25.467Z,2.45
2023-01-01T06:37:28.534Z,3.51
2023-01-01T06:40:33.492Z,2.68
2023-01-01T06:43:37.894Z,2.79
2023-01-01T06:46:42.610Z,2.82
2023-01-01T06:49:46.427Z,2.78
2023-01-01T06:52:49.520Z,2.72
2023-01-01T06:55:57.115Z,2.72
2023-01-01T06:59:01.154Z,3.09
2023-01-01T07:02:04.476Z,3.45
2023-01-01T07:05:08.298Z,3.44
2023-01-01T07:08:11.003Z,3.10
2023-01-01T07:11:14.145Z,3.21
2023-01-01T07:14:16.896Z,3.20
2023-01-01T07:17:19.991Z,3.07
2023-01-01T07:20:22.725Z,3.04
2023-01-01T07:23:27.305Z,3.02
2023-01-01T07:26:31.817Z,3.09
2023-01-01T07:29:34.656Z,3.28
2023-01-01T07:32:38.352Z,3.66
2023-01-01T07:35:41.518Z,3.98
2023-01-01T07:38:44.176Z,3.57
2023-01-01T07:41:47.267Z,3.89
2023-01-01T07:44:50.069Z,4.63
2023-01-01T07:47:55.588Z,4.75
2023-01-01T07:50:58.524Z,5.24
2023-01-01T07:54:06.734Z,5.22
2023-01-01T07:57:10.811Z,5.29
2023-01-01T08:00:17.009Z,5.87
2023-01-01T08:03:20.125Z,6.20
2023-01-01T08:06:23.569Z,6.38
2023-01-01T08:09:26.513Z,6.71
2023-01-01T08:12:29.066Z,6.61
2023-01-01T08:15:32.607Z,6.76
2023-01-01T08:18:35.940Z,7.50
2023-01-01T08:21:38.921Z,7.99
2023-01-01T08:24:44.023Z,7.72
2023-01-01T08:27:49.245Z,7.74
2023-01-01T08:30:51.767Z,7.79
2023-01-01T08:33:54.585Z,7.41
2023-01-01T08:36:57.118Z,7.30
2023-01-01T08:40:05.572Z,7.92
2023-01-01T08:43:08.346Z,8.22
2023-01-01T08:46:11.333Z,8.52
2023-01-01T08:49:13.961Z,8.49
2023-01-01T08:52:17.620Z,8.52
2023-01-01T08:55:20.275Z,8.50
2023-01-01T08:58:23.309Z,8.87
2023-01-01T09:01:28.012Z,9.16
2023-01-01T09:04:31.085Z,9.35
2023-01-01T09:07:33.941Z,9.87
2023-01-01T09:10:37.904Z,9.86
2023-01-01T09:13:40.498Z,10.10
2023-01-01T09:16:44.414Z,10.59
2023-01-01T09:19:48.728Z,10.89
2023-01-01T09:22:51.652Z,11.47
2023-01-01T09:25:54.214Z,11.63
2023-01-01T09:28:58.319Z,11.50
2023-01-01T09:32:01.010Z,11.32
2023-01-01T09:35:04.220Z,10.83
2023-01-01T09:38:07.169Z,11.12
2023-01-01T09:41:55.196Z,11.25
2023-01-01T09:45:16.839Z,11.36
2023-01-01T09:48:20.200Z,11.53
2023-01-01T09:51:24.873Z,11.63
2023-01-01T09:54:54.548Z,11.53
2023-01-01T09:57:57.979Z,10.49
2023-01-01T10:01:30.454Z,10.87
2023-01-01T10:04:43.072Z,11.18
2023-01-01T10:07:50.983Z,11.06
2023-01-01T10:11:12.472Z,11.41
2023-01-01T10:14:28.847Z,11.20
2023-01-01T10:17:43.658Z,10.97
2023-01-01T10:21:08.045Z,11.33
2023-01-01T10:24:30.041Z,11.72
2023-01-01T10:27:39.876Z,10.51
2023-01-01T10:30:44.576Z,10.44
2023-01-01T10:33:48.173Z,10.45
2023-01-01T10:37:02.130Z,10.69
2023-01-01T10:40:18.281Z,11.17
2023-01-01T10:43:21.515Z,12.38
2023-01-01T10:46:31.846Z,11.89
2023-01-01T10:49:54.616Z,11.93
2023-01-01T10:52:57.335Z,12.72
2023-01-01T10:56:16.707Z,12.27
2023-01-01T10:59:40.377Z,12.60
2023-01-01T11:02:46.593Z,12.08
2023-01-01T11:06:01.150Z,12.47
2023-01-01T11:09:21.797Z,12.01
2023-01-01T11:13:03.702Z,11.95
2023-01-01T11:15:54.932Z,12.74
2023-01-01T11:19:08.565Z,13.34
2023-01-01T11:22:39.864Z,13.39
2023-01-01T11:26:02.302Z,12.95
2023-01-01T11:29:27.970Z,13.10
2023-01-01T11:32:36.359Z,13.21
2023-01-01T11:35:50.859Z,13.01
2023-01-01T11:39:27.699Z,13.34
2023-01-01T11:42:36.047Z,13.36
2023-01-01T11:45:42.421Z,11.94
2023-01-01T11:48:45.418Z,10.99
2023-01-01T11:51:48.220Z,11.44
2023-01-01T11:54:52.106Z,11.43
2023-01-01T11:58:29.715Z,11.16
2023-01-01T12:01:43.306Z,10.86
2023-01-01T12:04:56.081Z,12.12
2023-01-01T12:08:03.287Z,11.29
2023-01-01T12:11:17.602Z,11.59
2023-01-01T12:14:44.831Z,11.06
2023-01-01T12:17:55.145Z,11.53
2023-01-01T12:21:28.273Z,11.57
2023-01-01T12:24:35.469Z,11.37
2023-01-01T12:28:01.040Z,11.18
2023-01-01T12:31:46.236Z,11.30
2023-01-01T12:35:24.636Z,11.33
2023-01-01T12:38:36.610Z,11.64
2023-01-01T12:42:06.480Z,12.00
2023-01-01T12:45:37.449Z,11.52
2023-01-01T12:48:43.228Z,11.91
2023-01-01T12:52:09.772Z,11.84
2023-01-01T12:55:31.644Z,11.66
2023-01-01T12:59:04.199Z,11.50
2023-01-01T13:02:27.160Z,11.23
2023-01-01T13:05:51.277Z,11.27
2023-01-01T13:09:00.443Z,11.07
2023-01-01T13:12:11.502Z,10.98
2023-01-01T13:15:39.573Z,10.86
2023-01-01T13:18:49.662Z,10.49
2023-01-01T13:21:52.380Z,10.60
2023-01-01T13:25:16.034Z,10.24
2023-01-01T13:28:19.835Z,10.39
2023-01-01T13:31:38.400Z,10.49
2023-01-01T13:34:59.751Z,10.18
2023-01-01T13:38:02.528Z,10.04
2023-01-01T13:41:30.943Z,10.05
2023-01-01T13:44:34.179Z,10.06
2023-01-01T13:47:56.880Z,10.01
2023-01-01T13:51:12.473Z,10.48
2023-01-01T13:54:49.404Z,10.23
2023-01-01T13:58:30.346Z,10.09
2023-01-01T14:02:02.281Z,9.54
2023-01-01T14:05:31.660Z,9.25
2023-01-01T14:08:36.546Z,9.71
2023-01-01T14:11:40.437Z,9.68
2023-01-01T14:14:43.054Z,9.36
2023-01-01T14:17:47.316Z,9.14
2023-01-01T14:20:53.946Z,9.40
2023-01-01T14:24:06.246Z,8.90
2023-01-01T14:27:09.093Z,8.54
2023-01-01T14:30:21.147Z,8.89
2023-01-01T14:33:27.157Z,8.94
2023-01-01T14:36:31.910Z,8.91
2023-01-01T14:39:36.999Z,9.22
2023-01-01T14:42:40.564Z,9.15
2023-01-01T14:45:44.419Z,9.18
2023-01-01T14:49:01.092Z,8.96
2023-01-01T14:52:28.995Z,8.94
2023-01-01T14:55:41.344Z,9.05
2023-01-01T14:58:44.718Z,8.84
2023-01-01T15:02:01.989Z,8.78
2023-01-01T15:05:22.762Z,8.39
2023-01-01T15:08:27.543Z,8.74
2023-01-01T15:11:31.413Z,8.48
2023-01-01T15:14:45.884Z,9.08
2023-01-01T15:17:48.389Z,8.82
2023-01-01T15:20:54.542Z,8.52
2023-01-01T15:24:03.047Z,8.37
2023-01-01T15:27:08.332Z,8.40
2023-01-01T15:30:27.941Z,8.61
2023-01-01T15:33:30.898Z,8.94
2023-01-01T15:36:33.688Z,8.79
2023-01-01T15:39:46.133Z,8.80
2023-01-01T15:42:58.714Z,8.89
2023-01-01T15:46:18.982Z,8.62
2023-01-01T15:49:31.713Z,8.65
2023-01-01T15:52:35.650Z,8.61
2023-01-01T15:55:46.364Z,8.64
2023-01-01T15:59:09.255Z,8.89
2023-01-01T16:02:20.332Z,8.54
2023-01-01T16:05:25.835Z,8.53
2023-01-01T16:08:28.927Z,8.97
2023-01-01T16:11:38.748Z,8.95
2023-01-01T16:14:41.400Z,8.49
2023-01-01T16:17:44.657Z,8.66
2023-01-01T16:20:47.663Z,9.09
2023-01-01T16:23:53.391Z,8.82
2023-01-01T16:26:56.087Z,8.59
2023-01-01T16:29:59.590Z,8.82
2023-01-01T16:33:04.447Z,8.83
2023-01-01T16:36:09.039Z,8.95
2023-01-01T16:39:12.000Z,8.85
2023-01-01T16:42:15.144Z,8.77
2023-01-01T16:45:19.029Z,8.94
2023-01-01T16:48:21.991Z,8.82
2023-01-01T16:51:28.268Z,8.75
2023-01-01T16:54:31.536Z,8.57
2023-01-01T16:57:35.492Z,9.00
2023-01-01T17:00:38.724Z,9.00
2023-01-01T17:03:41.417Z,8.69
2023-01-01T17:06:47.080Z,8.72
2023-01-01T17:09:49.753Z,9.09
2023-01-01T17:12:52.910Z,8.88
2023-01-01T17:15:57.461Z,8.61
2023-01-01T17:19:18.015Z,8.77
2023-01-01T17:22:22.507Z,8.97
2023-01-01T17:25:25.286Z,8.99
2023-01-01T17:28:28.086Z,8.92
2023-01-01T17:31:31.188Z,8.77
2023-01-01T17:34:42.515Z,9.00
2023-01-01T17:37:45.516Z,8.94
2023-01-01T17:40:52.242Z,8.68
2023-01-01T17:43:56.072Z,8.53
2023-01-01T17:46:59.724Z,8.74
2023-01-01T17:50:03.028Z,8.83
2023-01-01T17:53:12.095Z,8.39
2023-01-01T17:56:18.957Z,8.33
2023-01-01T17:59:21.507Z,8.62
2023-01-01T18:02:25.358Z,8.43
2023-01-01T18:05:29.016Z,8.39
2023-01-01T18:08:33.063Z,8.60
2023-01-01T18:11:36.330Z,8.54
2023-01-01T18:14:38.878Z,8.51
2023-01-01T18:17:43.929Z,8.48
2023-01-01T18:20:47.625Z,8.40
2023-01-01T18:23:52.505Z,8.45
2023-01-01T18:26:56.983Z,8.61
2023-01-01T18:30:00.009Z,8.73
2023-01-01T18:33:02.648Z,8.50
2023-01-01T18:36:07.204Z,8.47
2023-01-01T18:39:14.909Z,8.48
2023-01-01T18:42:56.400Z,8.74
2023-01-01T18:45:59.101Z,8.65
2023-01-01T18:49:04.515Z,8.68
2023-01-01T18:52:16.389Z,8.72
2023-01-01T18:55:23.080Z,8.64
2023-01-01T18:58:25.965Z,8.51
2023-01-01T19:01:32.364Z,8.89
2023-01-01T19:04:35.251Z,8.56
2023-01-01T19:07:38.504Z,8.46
2023-01-01T19:10:57.021Z,8.67
2023-01-01T19:14:08.849Z,8.59
2023-01-01T19:17:21.837Z,8.48
2023-01-01T19:20:25.231Z,8.52
2023-01-01T19:23:30.524Z,8.49
2023-01-01T19:26:42.784Z,8.55
2023-01-01T19:29:48.802Z,8.50
2023-01-01T19:32:52.798Z,8.38
2023-01-01T19:35:56.386Z,9.27
2023-01-01T19:38:59.641Z,9.45
2023-01-01T19:42:07.186Z,9.27
2023-01-01T19:45:10.974Z,9.20
2023-01-01T19:48:13.710Z,9.18
2023-01-01T19:51:17.112Z,9.18
2023-01-01T19:54:20.901Z,9.33
2023-01-01T19:57:23.864Z,9.40
2023-01-01T20:00:28.180Z,9.25
2023-01-01T20:06:53.956Z,9.00
2023-01-01T20:09:57.035Z,8.84
2023-01-01T20:13:00.302Z,8.98
2023-01-01T20:16:05.334Z,8.84
2023-01-01T20:19:08.226Z,8.87
2023-01-01T20:22:11.475Z,8.90
2023-01-01T20:25:14.413Z,8.74
2023-01-01T20:28:36.205Z,8.66
2023-01-01T20:31:40.140Z,8.79
2023-01-01T20:34:43.666Z,8.78
2023-01-01T20:37:46.513Z,8.58
2023-01-01T20:40:50.811Z,8.63
2023-01-01T20:44:01.754Z,8.41
2023-01-01T20:47:04.899Z,8.48
2023-01-01T20:50:08.202Z,8.62
2023-01-01T20:53:12.560Z,8.53
2023-01-01T20:56:15.700Z,8.58
2023-01-01T20:59:36.509Z,8.60
2023-01-01T21:02:40.607Z,8.82
2023-01-01T21:05:43.876Z,8.88
2023-01-01T21:08:47.996Z,8.78
2023-01-01T21:11:51.456Z,8.66
2023-01-01T21:14:56.372Z,8.59
2023-01-01T21:18:00.356Z,8.88
2023-01-01T21:21:15.717Z,8.83
2023-01-01T21:24:26.549Z,8.91
2023-01-01T21:27:34.037Z,8.74
2023-01-01T21:30:50.453Z,8.86
2023-01-01T21:33:53.389Z,8.78
2023-01-01T21:37:06.039Z,8.75
2023-01-01T21:40:34.559Z,8.49
2023-01-01T21:43:39.907Z,8.45
2023-01-01T21:46:47.131Z,8.39
2023-01-01T21:49:56.336Z,8.71
2023-01-01T21:53:02.456Z,8.74
2023-01-01T21:56:24.380Z,8.79
2023-01-01T21:59:38.119Z,8.84
2023-01-01T22:02:47.270Z,8.82
2023-01-01T22:05:54.289Z,8.78
2023-01-01T22:09:01.768Z,8.81
2023-01-01T22:12:14.413Z,8.87
2023-01-01T22:15:26.478Z,8.92
2023-01-01T22:18:31.138Z,8.75
2023-01-01T22:21:35.837Z,8.79
2023-01-01T22:24:38.704Z,8.70
2023-01-01T22:27:43.913Z,8.78
2023-01-01T22:30:53.087Z,8.72
2023-01-01T22:34:00.286Z,8.70
2023-01-01T22:37:03.209Z,8.67
2023-01-01T22:40:21.997Z,8.66
2023-01-01T22:43:31.743Z,8.61
2023-01-01T22:46:40.124Z,8.48
2023-01-01T22:49:47.497Z,8.49
2023-01-01T22:52:50.779Z,8.45
2023-01-01T22:55:53.791Z,8.45
2023-01-01T22:58:57.614Z,8.40
2023-01-01T23:02:01.111Z,8.34
2023-01-01T23:05:05.083Z,8.37
2023-01-01T23:08:08.189Z,8.31
2023-01-01T23:11:11.350Z,8.28
2023-01-01T23:14:37.075Z,8.16
2023-01-01T23:17:41.513Z,8.14
2023-01-01T23:20:44.359Z,8.27
2023-01-01T23:23:50.366Z,8.28
2023-01-01T23:26:53.779Z,8.23
2023-01-01T23:29:56.721Z,8.32
2023-01-01T23:33:01.889Z,8.32
2023-01-01T23:36:05.419Z,8.34
2023-01-01T23:39:08.502Z,8.26
2023-01-01T23:42:11.227Z,8.19
2023-01-01T23:45:14.092Z,8.15
2023-01-01T23:48:17.219Z,8.15
2023-01-01T23:51:20.921Z,8.16
2023-01-01T23:54:23.434Z,8.08
2023-01-01T23:57:26.543Z,8.00
